createdAt,value
2023-03-31T06:21:23.879Z,87.99
2023-03-31T06:23:50.536Z,87.63
2023-03-31T06:26:19.809Z,87.92
2023-03-31T06:28:46.786Z,87.63
2023-03-31T06:31:19.183Z,87.57
2023-03-31T06:33:45.781Z,87.85
2023-03-31T06:36:14.008Z,87.72
2023-03-31T06:38:40.627Z,87.42
2023-03-31T06:41:08.787Z,87.52
2023-03-31T06:43:35.735Z,87.30
2023-03-31T06:46:02.110Z,87.48
2023-03-31T06:48:28.775Z,87.44
2023-03-31T06:50:57.707Z,87.24
2023-03-31T06:53:24.140Z,87.42
2023-03-31T06:55:50.888Z,87.67
2023-03-31T06:58:17.351Z,87.81
2023-03-31T07:00:46.134Z,87.88
2023-03-31T07:03:13.862Z,87.59
2023-03-31T07:05:40.511Z,88.21
2023-03-31T07:08:07.229Z,87.79
2023-03-31T07:10:33.597Z,87.12
2023-03-31T07:13:00.443Z,87.21
2023-03-31T07:15:28.214Z,86.79
2023-03-31T07:18:01.983Z,86.98
2023-03-31T07:20:30.448Z,87.13
2023-03-31T07:22:57.215Z,87.37
2023-03-31T07:25:24.063Z,87.01
2023-03-31T07:27:51.773Z,86.67
2023-03-31T07:30:20.602Z,87.01
2023-03-31T07:32:49.245Z,86.82
2023-03-31T07:35:16.011Z,86.47
2023-03-31T07:37:46.136Z,86.81
2023-03-31T07:40:16.804Z,87.25
2023-03-31T07:42:45.116Z,87.69
2023-03-31T07:45:13.604Z,87.61
2023-03-31T07:47:40.064Z,87.59
2023-03-31T07:50:08.046Z,87.48
2023-03-31T07:52:35.268Z,87.86
2023-03-31T07:55:01.795Z,88.11
2023-03-31T07:57:28.145Z,87.90
2023-03-31T07:59:54.537Z,88.04
2023-03-31T08:02:22.757Z,87.72
2023-03-31T08:04:49.217Z,87.42
2023-03-31T08:07:17.046Z,87.40
2023-03-31T08:09:45.857Z,87.25
2023-03-31T08:12:12.873Z,86.90
2023-03-31T08:14:41.737Z,87.31
2023-03-31T08:17:09.603Z,87.23
2023-03-31T08:19:37.542Z,87.44
2023-03-31T08:22:04.002Z,87.49
2023-03-31T08:24:30.400Z,87.78
2023-03-31T08:26:57.102Z,87.88
2023-03-31T08:29:23.839Z,87.57
2023-03-31T08:31:50.415Z,87.76
2023-03-31T08:34:16.800Z,87.85
2023-03-31T08:36:43.336Z,87.59
2023-03-31T08:39:12.049Z,87.77
2023-03-31T08:41:54.671Z,88.05
2023-03-31T08:44:37.647Z,87.87
2023-03-31T08:47:09.743Z,87.89
2023-03-31T08:49:45.539Z,87.93
2023-03-31T08:52:19.373Z,87.41
2023-03-31T08:54:55.522Z,87.33
2023-03-31T08:57:30.353Z,86.99
2023-03-31T09:00:06.742Z,86.86
2023-03-31T09:03:11.951Z,86.18
2023-03-31T09:05:59.482Z,86.15
2023-03-31T09:08:35.207Z,85.87
2023-03-31T09:11:31.897Z,85.17
2023-03-31T09:14:16.258Z,84.67
2023-03-31T09:17:15.543Z,83.78
2023-03-31T09:19:52.628Z,84.02
2023-03-31T09:22:25.575Z,83.26
2023-03-31T09:25:06.020Z,81.93
2023-03-31T09:27:37.139Z,81.31
2023-03-31T09:30:27.122Z,81.38
2023-03-31T09:33:09.679Z,78.01
2023-03-31T09:35:36.453Z,77.34
2023-03-31T09:38:02.938Z,75.89
2023-03-31T09:40:29.873Z,74.06
2023-03-31T09:43:00.922Z,72.97
2023-03-31T09:45:28.628Z,74.19
2023-03-31T09:47:59.291Z,72.57
2023-03-31T09:50:26.681Z,73.17
2023-03-31T09:52:57.587Z,73.34
2023-03-31T09:55:38.751Z,71.64
2023-03-31T09:58:08.148Z,72.30
2023-03-31T10:00:35.960Z,71.84
2023-03-31T10:03:07.398Z,69.93
2023-03-31T10:05:51.248Z,71.12
2023-03-31T10:08:19.168Z,72.51
2023-03-31T10:11:07.865Z,72.60
2023-03-31T10:13:59.099Z,73.29
2023-03-31T10:16:43.178Z,73.63
2023-03-31T10:19:26.792Z,74.49
2023-03-31T10:22:00.937Z,73.88
2023-03-31T10:24:37.741Z,74.06
2023-03-31T10:27:08.721Z,73.87
2023-03-31T10:29:35.342Z,72.77
2023-03-31T10:32:13.206Z,73.07
2023-03-31T10:34:42.847Z,72.01
2023-03-31T10:37:19.254Z,72.75
2023-03-31T10:39:50.507Z,73.00
2023-03-31T10:42:22.495Z,73.82
2023-03-31T10:44:49.165Z,74.41
2023-03-31T10:47:18.169Z,75.02
2023-03-31T10:49:44.990Z,75.45
2023-03-31T10:52:23.206Z,75.02
2023-03-31T10:54:54.863Z,74.63
2023-03-31T10:57:48.249Z,74.73
2023-03-31T11:01:03.188Z,75.06
2023-03-31T11:04:08.837Z,75.80
2023-03-31T11:06:49.377Z,76.15
2023-03-31T11:09:37.563Z,76.08
2023-03-31T11:12:45.500Z,76.48
2023-03-31T11:15:24.918Z,76.10
2023-03-31T11:18:07.056Z,76.18
2023-03-31T11:20:41.880Z,75.84
2023-03-31T11:23:14.108Z,76.40
2023-03-31T11:25:56.666Z,76.50
2023-03-31T11:28:38.246Z,76.79
2023-03-31T11:31:16.581Z,77.08
2023-03-31T11:34:09.385Z,77.31
2023-03-31T11:36:57.271Z,77.43
2023-03-31T11:39:38.336Z,77.50
2023-03-31T11:42:16.315Z,78.03
2023-03-31T11:44:48.261Z,78.07
2023-03-31T11:47:19.529Z,78.80
2023-03-31T11:49:55.357Z,78.19
2023-03-31T11:52:34.385Z,78.25
2023-03-31T11:55:17.649Z,77.68
2023-03-31T11:57:47.159Z,77.41
2023-03-31T12:00:19.658Z,77.09
2023-03-31T12:03:22.475Z,76.88
2023-03-31T12:05:53.738Z,76.80
2023-03-31T12:08:38.920Z,76.60
2023-03-31T12:11:10.921Z,76.15
2023-03-31T12:13:56.171Z,75.90
2023-03-31T12:16:25.170Z,76.21
2023-03-31T12:19:22.332Z,76.27
2023-03-31T12:22:12.815Z,76.62
2023-03-31T12:24:39.271Z,76.74
2023-03-31T12:27:16.757Z,77.39
2023-03-31T12:29:46.950Z,77.27
2023-03-31T12:32:20.959Z,76.18
2023-03-31T12:35:00.291Z,71.72
2023-03-31T12:37:38.751Z,72.70
2023-03-31T12:40:39.119Z,72.21
2023-03-31T12:43:24.362Z,72.46
2023-03-31T12:46:18.629Z,73.17
2023-03-31T12:49:00.149Z,73.76
2023-03-31T12:51:57.974Z,73.93
2023-03-31T12:54:41.924Z,74.65
2023-03-31T12:57:08.317Z,74.69
2023-03-31T12:59:39.220Z,74.65
2023-03-31T13:02:17.372Z,75.06
2023-03-31T13:04:44.352Z,75.12
2023-03-31T13:07:29.192Z,74.64
2023-03-31T13:10:20.000Z,74.89
2023-03-31T13:13:06.132Z,73.30
2023-03-31T13:15:35.354Z,72.64
2023-03-31T13:18:07.276Z,73.52
2023-03-31T13:20:36.510Z,72.85
2023-03-31T13:23:11.689Z,71.57
2023-03-31T13:25:49.944Z,71.73
2023-03-31T13:28:22.170Z,71.81
2023-03-31T13:31:04.786Z,71.52
2023-03-31T13:33:41.718Z,72.08
2023-03-31T13:36:25.151Z,71.82
2023-03-31T13:39:12.976Z,72.33
2023-03-31T13:42:17.165Z,72.62
2023-03-31T13:45:15.342Z,72.49
2023-03-31T13:48:15.509Z,72.43
2023-03-31T13:51:06.040Z,72.43
2023-03-31T13:54:18.036Z,71.65
2023-03-31T13:57:21.765Z,71.42
2023-03-31T14:00:27.602Z,71.89
2023-03-31T14:03:33.761Z,71.50
2023-03-31T14:06:18.906Z,71.89
2023-03-31T14:08:56.526Z,72.15
2023-03-31T14:11:30.278Z,71.53
2023-03-31T14:14:11.278Z,71.92
2023-03-31T14:16:41.202Z,71.68
2023-03-31T14:19:32.060Z,72.05
2023-03-31T14:22:14.722Z,71.93
2023-03-31T14:25:08.168Z,71.72
2023-03-31T14:27:56.001Z,71.65
2023-03-31T14:30:42.311Z,72.56
2023-03-31T14:33:43.296Z,72.71
2023-03-31T14:36:25.906Z,73.39
2023-03-31T14:38:52.929Z,73.61
2023-03-31T14:41:29.613Z,74.32
2023-03-31T14:43:58.307Z,74.77
2023-03-31T14:46:24.778Z,74.95
2023-03-31T14:48:52.028Z,75.46
2023-03-31T14:51:27.133Z,75.92
2023-03-31T14:53:57.790Z,75.30
2023-03-31T14:56:39.922Z,75.68
2023-03-31T14:59:07.400Z,76.03
2023-03-31T15:01:37.732Z,76.06
2023-03-31T15:04:09.753Z,75.31
2023-03-31T15:06:39.642Z,75.32
2023-03-31T15:09:06.416Z,75.25
2023-03-31T15:11:33.031Z,75.37
2023-03-31T15:14:05.562Z,75.25
2023-03-31T15:16:43.520Z,75.34
2023-03-31T15:19:21.485Z,74.95
2023-03-31T15:21:56.488Z,74.72
2023-03-31T15:24:23.729Z,74.82
2023-03-31T15:26:58.428Z,74.53
2023-03-31T15:29:49.872Z,74.54
2023-03-31T15:32:28.378Z,75.13
2023-03-31T15:34:57.341Z,74.55
2023-03-31T15:37:40.314Z,74.68
2023-03-31T15:40:24.473Z,74.70
2023-03-31T15:43:06.658Z,74.89
2023-03-31T15:45:51.974Z,75.20
2023-03-31T15:48:37.648Z,73.61
2023-03-31T15:51:19.500Z,75.26
2023-03-31T15:53:48.999Z,75.03
2023-03-31T15:56:46.576Z,74.51
2023-03-31T15:59:27.516Z,74.90
2023-03-31T16:01:56.471Z,74.83
2023-03-31T16:04:29.277Z,75.03
2023-03-31T16:07:05.161Z,75.53
2023-03-31T16:09:53.815Z,75.38
2023-03-31T16:12:27.468Z,75.22
2023-03-31T16:15:04.744Z,75.41
2023-03-31T16:17:42.961Z,75.34
2023-03-31T16:20:19.933Z,75.58
2023-03-31T16:22:52.662Z,75.65
2023-03-31T16:25:22.404Z,75.65
2023-03-31T16:27:53.616Z,75.27
2023-03-31T16:30:23.846Z,75.68
2023-03-31T16:33:10.655Z,76.03
2023-03-31T16:35:42.799Z,76.15
2023-03-31T16:38:11.868Z,76.43
2023-03-31T16:40:44.010Z,76.60
2023-03-31T16:43:15.888Z,76.71
2023-03-31T16:45:51.012Z,76.75
2023-03-31T16:48:20.917Z,76.75
2023-03-31T16:50:50.736Z,77.03
2023-03-31T16:53:20.832Z,77.29
2023-03-31T16:55:47.238Z,77.34
2023-03-31T16:58:16.040Z,77.32
2023-03-31T17:00:42.841Z,77.33
2023-03-31T17:03:10.438Z,77.30
2023-03-31T17:05:44.644Z,77.13
2023-03-31T17:08:12.904Z,77.29
2023-03-31T17:10:41.222Z,77.61
2023-03-31T17:13:09.648Z,77.59
2023-03-31T17:15:37.875Z,77.70
2023-03-31T17:18:07.296Z,77.77
2023-03-31T17:20:34.309Z,78.31
2023-03-31T17:23:01.463Z,78.12
2023-03-31T17:25:27.926Z,78.99
2023-03-31T17:27:56.184Z,79.77
2023-03-31T17:30:25.904Z,80.45
2023-03-31T17:32:52.777Z,80.34
2023-03-31T17:35:22.396Z,80.74
2023-03-31T17:37:51.493Z,80.69
2023-03-31T17:40:18.226Z,80.74
2023-03-31T17:42:44.761Z,80.94
2023-03-31T17:45:12.691Z,81.36
2023-03-31T17:47:39.129Z,80.89
2023-03-31T17:50:06.176Z,81.14
2023-03-31T17:52:33.614Z,81.43
2023-03-31T17:54:59.949Z,81.50
2023-03-31T17:57:27.371Z,82.46
2023-03-31T17:59:54.442Z,82.53
2023-03-31T18:02:20.862Z,83.28
2023-03-31T18:04:47.370Z,83.28
2023-03-31T18:07:14.404Z,83.00
2023-03-31T18:09:40.749Z,83.44
2023-03-31T18:12:07.197Z,83.81
2023-03-31T18:14:33.866Z,83.58
2023-03-31T18:17:01.801Z,83.96
2023-03-31T18:19:28.121Z,84.01
2023-03-31T18:21:57.218Z,83.41
2023-03-31T18:24:24.675Z,84.10
2023-03-31T18:26:51.302Z,84.41
2023-03-31T18:29:21.099Z,84.00
2023-03-31T18:31:47.666Z,83.88
2023-03-31T18:34:17.105Z,83.89
2023-03-31T18:36:43.525Z,84.05
2023-03-31T18:39:11.248Z,83.99
2023-03-31T18:41:44.854Z,84.26
2023-03-31T18:44:16.239Z,84.39
2023-03-31T18:46:44.963Z,84.26
2023-03-31T18:49:12.280Z,84.47
2023-03-31T18:51:39.665Z,84.29
2023-03-31T18:54:08.759Z,84.20
2023-03-31T18:56:38.131Z,84.29
2023-03-31T18:59:05.375Z,84.46
2023-03-31T19:01:35.068Z,84.54
2023-03-31T19:04:01.514Z,84.04
2023-03-31T19:06:29.377Z,84.65
2023-03-31T19:08:56.772Z,84.13
2023-03-31T19:11:24.078Z,84.15
2023-03-31T19:13:52.361Z,84.24
2023-03-31T19:16:22.453Z,83.93
2023-03-31T19:18:49.026Z,84.29
2023-03-31T19:21:16.957Z,83.84
2023-03-31T19:23:44.247Z,84.97
2023-03-31T19:26:17.976Z,84.54
2023-03-31T19:28:54.103Z,84.97
2023-03-31T19:31:20.904Z,84.55
2023-03-31T19:33:47.374Z,85.10
2023-03-31T19:36:14.176Z,85.02
2023-03-31T19:38:42.175Z,84.87
2023-03-31T19:41:10.422Z,85.06
2023-03-31T19:43:39.994Z,85.13
2023-03-31T19:46:08.269Z,85.33
2023-03-31T19:48:35.425Z,85.57
2023-03-31T19:51:06.227Z,85.93
2023-03-31T19:53:33.773Z,85.97
2023-03-31T19:56:02.804Z,86.47
2023-03-31T19:58:30.839Z,86.37
2023-03-31T20:00:57.803Z,86.33
2023-03-31T20:03:26.060Z,86.37
2023-03-31T20:05:53.997Z,86.17
2023-03-31T20:08:20.709Z,86.24
2023-03-31T20:10:50.279Z,86.12
2023-03-31T20:13:18.289Z,86.03
2023-03-31T20:15:45.179Z,85.91
2023-03-31T20:18:12.661Z,85.97
2023-03-31T20:20:40.870Z,85.82
2023-03-31T20:23:07.440Z,85.65
2023-03-31T20:25:37.518Z,85.47
2023-03-31T20:28:04.064Z,85.65
2023-03-31T20:30:30.499Z,85.51
2023-03-31T20:32:57.449Z,85.32
2023-03-31T20:35:24.212Z,85.28
2023-03-31T20:37:55.348Z,85.58
2023-03-31T20:40:22.550Z,85.63
2023-03-31T20:42:50.432Z,85.41
2023-03-31T20:45:16.774Z,85.44
2023-03-31T20:47:46.628Z,85.31
2023-03-31T20:50:13.168Z,85.15
2023-03-31T20:52:41.627Z,85.23
2023-03-31T20:55:09.660Z,85.25
2023-03-31T20:57:36.533Z,85.23
2023-03-31T21:00:03.865Z,85.09
2023-03-31T21:02:30.289Z,85.08
2023-03-31T21:04:56.627Z,85.11
2023-03-31T21:07:25.658Z,85.04
2023-03-31T21:09:52.310Z,85.18
2023-03-31T21:12:19.782Z,85.10
2023-03-31T21:14:46.442Z,84.89
2023-03-31T21:17:12.800Z,84.96
2023-03-31T21:19:39.142Z,84.79
2023-03-31T21:22:07.963Z,84.85
2023-03-31T21:24:36.005Z,84.67
2023-03-31T21:27:02.348Z,84.97
2023-03-31T21:29:29.297Z,84.78
2023-03-31T21:31:57.837Z,84.58
2023-03-31T21:34:24.308Z,84.59
2023-03-31T21:36:51.684Z,84.35
2023-03-31T21:39:18.024Z,84.27
2023-03-31T21:41:44.422Z,84.24
2023-03-31T21:44:11.206Z,84.13
2023-03-31T21:46:37.834Z,84.13
2023-03-31T21:49:04.307Z,83.99
2023-03-31T21:51:31.229Z,84.24
2023-03-31T21:53:57.767Z,84.17
2023-03-31T21:56:32.714Z,84.13
2023-03-31T21:59:01.962Z,84.03
2023-03-31T22:01:28.627Z,83.96
2023-03-31T22:03:54.989Z,83.98
2023-03-31T22:06:22.301Z,83.88
2023-03-31T22:08:51.100Z,84.22
2023-03-31T22:11:17.725Z,83.92
2023-03-31T22:13:44.462Z,83.92
2023-03-31T22:16:19.490Z,83.87
2023-03-31T22:18:47.588Z,83.92
2023-03-31T22:21:21.376Z,84.15
2023-03-31T22:23:48.220Z,83.90
2023-03-31T22:26:14.587Z,83.75
2023-03-31T22:28:41.114Z,83.85
2023-03-31T22:31:08.134Z,83.68
2023-03-31T22:33:35.540Z,83.78
2023-03-31T22:36:02.021Z,83.57
2023-03-31T22:38:29.913Z,83.77
2023-03-31T22:40:56.951Z,83.46
2023-03-31T22:43:23.645Z,83.24
2023-03-31T22:45:50.113Z,83.34
2023-03-31T22:48:16.994Z,83.55
2023-03-31T22:50:43.396Z,83.40
2023-03-31T22:53:10.850Z,83.34
2023-03-31T22:55:54.002Z,83.48
2023-03-31T22:58:21.808Z,83.50
2023-03-31T23:00:57.793Z,83.66
2023-03-31T23:03:24.583Z,83.71
2023-03-31T23:05:50.916Z,83.82
2023-03-31T23:08:17.460Z,83.71
2023-03-31T23:10:54.359Z,83.79
2023-03-31T23:13:21.037Z,83.82
2023-03-31T23:15:49.012Z,83.83
2023-03-31T23:18:15.378Z,84.18
2023-03-31T23:20:42.659Z,83.95
2023-03-31T23:23:08.992Z,84.02
2023-03-31T23:25:35.703Z,84.20
2023-03-31T23:28:02.522Z,84.12
2023-03-31T23:30:29.205Z,84.13
2023-03-31T23:32:55.566Z,84.07
2023-03-31T23:35:22.240Z,84.10
2023-03-31T23:37:48.587Z,84.31
2023-03-31T23:40:16.229Z,84.39
2023-03-31T23:42:42.698Z,84.38
2023-03-31T23:45:09.449Z,84.35
2023-03-31T23:47:36.224Z,84.42
2023-03-31T23:50:02.943Z,84.45
2023-03-31T23:52:29.310Z,84.34
2023-03-31T23:54:57.043Z,84.31
2023-03-31T23:57:23.483Z,84.38
2023-03-31T23:59:54.268Z,84.37
